المنامة, البحرين

02:38 AM AST on أعس×س 01, 2014 (GMT +0300)
Bahrain International (OBBI) Elev 7 ft | 26.27 °N, 50.63 °E | Change Station

Current weather conditions updated 38 minutes ago

Clear
صافية
93 °F
Feels Like 100 °F
N
2
ريح متغير ريح from متغير

Today is forecast to be nearly the same temperature as yesterday.

هذا اليوم
High -- | Low -- °F
--% Chance of Precip.
Yesterday
High -- | Low -- °F
Precip. -- في
5:02 AM 6:24 PM
الهلال الأول, 21% visible
الضغط 29.42 في
وضوح الرؤية -9999.0 أميال
سحابات
مؤشر الحرارة 100 °F
نقطة الندى 72 °F
الرطوبة 49%
Rainfall 0.00 في
عمق الثلج Not available.
الأشعة فوق البنفسجية Not available.
Pollen Not available.
جودة الهواء Not available.
Flu Activity Not available.
METAR OBBI 312300Z VRB02KT CAVOK 34/22 Q0996 NOSIG

More Conditions Fewer Conditions

الضغط 29.42 في
وضوح الرؤية -9999.0 أميال
سحابات
مؤشر الحرارة 100 °F
نقطة الندى 72 °F
الرطوبة 49%
Rainfall 0.00 في
عمق الثلج Not available.
الأشعة فوق البنفسجية Not available.
Pollen Not available.
جودة الهواء Not available.
Flu Activity Not available.
METAR OBBI 312300Z VRB02KT CAVOK 34/22 Q0996 NOSIG

More Conditions Fewer Conditions

10-Day Weather Forecast

Almanac

علم الفلك

Aug. 01, 2014 Rise Set
Actual Time 5:02 AM AST 6:24 PM AST
Civil Twilight 4:37 AM AST 6:49 PM AST
Nautical Twilight 4:08 AM AST 7:18 PM AST
Astronomical Twilight 3:37 AM AST 7:49 PM AST
قمر 9:31 AM AST (8/1) 9:32 PM AST (8/1)
Length Of Visible Light 14h 11m
طول الیوم
13h 21m
Tomorrow will be 1m 9s shorter.
الهلال الأول, 21% of the Moon is Illuminated
Jul 31
الهلال الأول
Aug 3
الربع الاول
Aug 10
بدر
Aug 17
الربع الآخر
Aug 25
New

Yesterday's Extremes

Country Highs Country Lows

Community

WunderPhotos

Upload Photos

1,739,462 photos uploaded!

Nearby

جودة الهواء

Not available.

عمق الثلج

Not available.

Earthquake Activity

City Distance Mag. Time & Date
No recent earthquake activity has been reported nearby.
Minimum magnitude displayed is 2.5.

Coastal Water Temperatures

مكان درجات الحرارة
No Stations Reporting

Nearby Weather Stations

Station Location الحرارة مؤشر الحرارة نقطة الندى الرطوبة ريح Precip. Elev تحديث Type
Zallaq, Bahrain 86.2 °F 100 °F 79 °F 79% SSE  عند  2.1 mph 0.00 في / hr 20 ft 2:38 AM AST Rapid Fire

Show More Stations Show Fewer Stations